createdAt,value
2023-11-12T00:00:33.187Z,97320.06
2023-11-12T00:02:59.712Z,97322.53
2023-11-12T00:05:26.145Z,97322.91
2023-11-12T00:07:53.532Z,97329.28
2023-11-12T00:10:21.199Z,97329.63
2023-11-12T00:12:47.575Z,97334.47
2023-11-12T00:15:14.040Z,97328.63
2023-11-12T00:17:43.184Z,97326.25
2023-11-12T00:20:13.661Z,97325.47
2023-11-12T00:22:44.906Z,97331.22
2023-11-12T00:25:13.658Z,97325.78
2023-11-12T00:27:42.828Z,97331.69
2023-11-12T00:30:10.031Z,97332.47
2023-11-12T00:32:36.585Z,97332.00
2023-11-12T00:35:03.167Z,97328.31
2023-11-12T00:37:29.943Z,97321.41
2023-11-12T00:39:56.304Z,97330.31
2023-11-12T00:42:22.727Z,97333.06
2023-11-12T00:44:49.087Z,97325.63
2023-11-12T00:47:15.493Z,97323.53
2023-11-12T00:49:42.087Z,97321.75
2023-11-12T00:52:09.850Z,97322.84
2023-11-12T00:54:37.406Z,97324.22
2023-11-12T00:57:03.820Z,97316.50
2023-11-12T00:59:30.172Z,97315.72
2023-11-12T01:01:56.855Z,97314.72
2023-11-12T01:04:24.327Z,97303.84
2023-11-12T01:06:50.875Z,97312.44
2023-11-12T01:09:17.247Z,97311.94
2023-11-12T01:11:43.614Z,97305.31
2023-11-12T01:14:10.122Z,97305.59
2023-11-12T01:16:38.878Z,97311.22
2023-11-12T01:19:06.345Z,97309.16
2023-11-12T01:21:32.806Z,97309.16
2023-11-12T01:23:59.215Z,97302.81
2023-11-12T01:26:25.599Z,97303.09
2023-11-12T01:28:51.978Z,97301.00
2023-11-12T01:31:18.326Z,97310.34
2023-11-12T01:33:45.933Z,97304.03
2023-11-12T01:36:12.721Z,97299.78
2023-11-12T01:38:39.104Z,97299.06
2023-11-12T01:41:05.840Z,97297.75
2023-11-12T01:43:32.443Z,97290.38
2023-11-12T01:45:58.975Z,97292.50
2023-11-12T01:48:25.520Z,97291.81
2023-11-12T01:50:51.945Z,97300.88
2023-11-12T01:53:18.302Z,97288.44
2023-11-12T01:55:46.573Z,97288.72
2023-11-12T01:58:13.028Z,97285.84
2023-11-12T02:00:42.439Z,97284.53
2023-11-12T02:03:10.250Z,97286.72
2023-11-12T02:05:36.900Z,97285.13
2023-11-12T02:08:06.288Z,97289.16
2023-11-12T02:10:40.291Z,97286.00
2023-11-12T02:13:07.858Z,97285.78
2023-11-12T02:15:34.421Z,97285.25
2023-11-12T02:18:00.944Z,97287.44
2023-11-12T02:20:28.218Z,97286.06
2023-11-12T02:22:54.701Z,97283.97
2023-11-12T02:25:21.132Z,97292.53
2023-11-12T02:27:47.477Z,97287.81
2023-11-12T02:30:14.159Z,97285.13
2023-11-12T02:32:41.938Z,97285.69
2023-11-12T02:35:09.102Z,97285.69
2023-11-12T02:37:36.593Z,97291.38
2023-11-12T02:40:03.625Z,97290.09
2023-11-12T02:42:30.722Z,97293.03
2023-11-12T02:45:00.927Z,97290.91
2023-11-12T02:47:28.203Z,97285.09
2023-11-12T02:49:57.673Z,97293.09
2023-11-12T02:52:24.052Z,97291.28
2023-11-12T02:54:50.410Z,97288.09
2023-11-12T02:57:16.876Z,97291.06
2023-11-12T02:59:43.303Z,97292.91
2023-11-12T03:02:10.185Z,97285.50
2023-11-12T03:04:36.547Z,97294.03
2023-11-12T03:07:02.931Z,97301.53
2023-11-12T03:09:29.846Z,97303.72
2023-11-12T03:11:56.403Z,97299.44
2023-11-12T03:14:22.924Z,97289.38
2023-11-12T03:16:50.292Z,97296.28
2023-11-12T03:19:16.685Z,97292.31
2023-11-12T03:21:43.139Z,97292.59
2023-11-12T03:24:12.277Z,97291.28
2023-11-12T03:26:38.685Z,97289.69
2023-11-12T03:29:05.265Z,97288.91
2023-11-12T03:31:31.695Z,97292.13
2023-11-12T03:33:58.082Z,97290.56
2023-11-12T03:36:25.196Z,97290.84
2023-11-12T03:38:51.637Z,97291.41
2023-11-12T03:41:18.021Z,97289.59
2023-11-12T03:43:44.463Z,97288.00
2023-11-12T03:46:10.893Z,97282.97
2023-11-12T03:48:37.392Z,97281.66
2023-11-12T03:51:03.923Z,97282.25
2023-11-12T03:53:30.294Z,97279.59
2023-11-12T03:55:56.661Z,97288.94
2023-11-12T03:58:23.044Z,97283.09
2023-11-12T04:00:49.427Z,97278.34
2023-11-12T04:03:16.399Z,97277.56
2023-11-12T04:05:43.063Z,97281.56
2023-11-12T04:08:10.076Z,97275.44
2023-11-12T04:10:36.451Z,97280.28
2023-11-12T04:13:03.588Z,97278.94
2023-11-12T04:15:30.347Z,97277.06
2023-11-12T04:17:56.746Z,97274.75
2023-11-12T04:20:29.019Z,97272.06
2023-11-12T04:22:56.030Z,97280.31
2023-11-12T04:25:22.404Z,97272.34
2023-11-12T04:27:48.768Z,97276.34
2023-11-12T04:30:15.215Z,97284.31
2023-11-12T04:32:41.927Z,97277.44
2023-11-12T04:35:08.569Z,97280.38
2023-11-12T04:37:35.423Z,97276.66
2023-11-12T04:40:01.818Z,97280.41
2023-11-12T04:42:28.199Z,97286.28
2023-11-12T04:44:55.796Z,97288.41
2023-11-12T04:47:22.173Z,97282.59
2023-11-12T04:49:48.556Z,97297.75
2023-11-12T04:52:14.925Z,97298.03
2023-11-12T04:54:41.398Z,97292.19
2023-11-12T04:57:07.854Z,97300.47
2023-11-12T04:59:34.286Z,97298.06
2023-11-12T05:02:00.847Z,97298.34
2023-11-12T05:04:27.344Z,97295.19
2023-11-12T05:06:53.726Z,97300.78
2023-11-12T05:09:20.128Z,97298.09
2023-11-12T05:11:46.601Z,97304.00
2023-11-12T05:14:12.970Z,97305.59
2023-11-12T05:16:41.584Z,97308.25
2023-11-12T05:19:07.943Z,97314.63
2023-11-12T05:21:34.380Z,97315.72
2023-11-12T05:24:00.755Z,97316.78
2023-11-12T05:26:27.122Z,97314.41
2023-11-12T05:28:53.501Z,97319.72
2023-11-12T05:31:19.920Z,97320.78
2023-11-12T05:33:46.450Z,97314.94
2023-11-12T05:36:12.961Z,97315.22
2023-11-12T05:38:39.492Z,97315.78
2023-11-12T05:41:05.868Z,97315.28
2023-11-12T05:43:32.233Z,97312.63
2023-11-12T05:45:58.666Z,97321.94
2023-11-12T05:48:25.067Z,97320.34
2023-11-12T05:50:51.481Z,97318.03
2023-11-12T05:53:17.915Z,97321.75
2023-11-12T05:55:44.287Z,97314.56
2023-11-12T05:58:10.716Z,97327.88
2023-11-12T06:00:37.501Z,97320.94
2023-11-12T06:03:04.010Z,97328.13
2023-11-12T06:05:30.430Z,97327.28
2023-11-12T06:07:56.780Z,97317.19
2023-11-12T06:10:24.406Z,97324.59
2023-11-12T06:12:50.782Z,97323.78
2023-11-12T06:15:17.572Z,97324.34
2023-11-12T06:17:44.024Z,97332.81
2023-11-12T06:20:10.599Z,97332.53
2023-11-12T06:22:36.976Z,97333.34
2023-11-12T06:25:03.709Z,97329.59
2023-11-12T06:27:30.167Z,97341.31
2023-11-12T06:29:56.538Z,97337.84
2023-11-12T06:32:22.987Z,97339.44
2023-11-12T06:34:49.717Z,97329.88
2023-11-12T06:37:16.580Z,97342.38
2023-11-12T06:39:43.003Z,97340.78
2023-11-12T06:42:10.146Z,97345.59
2023-11-12T06:44:39.321Z,97344.81
2023-11-12T06:47:05.851Z,97346.66
2023-11-12T06:49:33.322Z,97350.38
2023-11-12T06:52:00.043Z,97353.03
2023-11-12T06:54:27.564Z,97356.78
2023-11-12T06:56:57.233Z,97359.16
2023-11-12T06:59:24.086Z,97359.69
2023-11-12T07:01:50.471Z,97359.09
2023-11-12T07:04:16.937Z,97358.84
2023-11-12T07:06:50.287Z,97355.91
2023-11-12T07:09:20.496Z,97361.22
2023-11-12T07:11:46.847Z,97367.31
2023-11-12T07:14:13.280Z,97366.53
2023-11-12T07:16:39.976Z,97364.16
2023-11-12T07:19:06.518Z,97368.41
2023-11-12T07:21:32.948Z,97370.28
2023-11-12T07:24:00.227Z,97370.56
2023-11-12T07:26:26.976Z,97376.66
2023-11-12T07:28:53.819Z,97381.19
2023-11-12T07:31:23.126Z,97379.56
2023-11-12T07:33:49.933Z,97374.56
2023-11-12T07:36:16.501Z,97384.09
2023-11-12T07:38:42.885Z,97391.28
2023-11-12T07:41:09.375Z,97388.63
2023-11-12T07:43:36.872Z,97382.25
2023-11-12T07:46:04.151Z,97397.94
2023-11-12T07:48:31.050Z,97398.44
2023-11-12T07:51:00.756Z,97401.09
2023-11-12T07:53:27.229Z,97407.69
2023-11-12T07:55:53.803Z,97409.66
2023-11-12T07:58:20.379Z,97420.41
2023-11-12T08:00:46.800Z,97417.03
2023-11-12T08:03:13.239Z,97415.19
2023-11-12T08:05:39.673Z,97410.13
2023-11-12T08:08:06.024Z,97416.25
2023-11-12T08:10:32.492Z,97413.59
2023-11-12T08:12:59.369Z,97414.94
2023-11-12T08:15:25.803Z,97416.31
2023-11-12T08:17:52.194Z,97421.06
2023-11-12T08:20:19.270Z,97423.69
2023-11-12T08:22:47.756Z,97424.75
2023-11-12T08:25:14.117Z,97428.72
2023-11-12T08:27:40.576Z,97433.50
2023-11-12T08:30:07.215Z,97430.31
2023-11-12T08:32:36.142Z,97429.00
2023-11-12T08:35:02.654Z,97431.13
2023-11-12T08:37:29.248Z,97429.53
2023-11-12T08:39:55.727Z,97431.94
2023-11-12T08:42:22.169Z,97427.16
2023-11-12T08:44:48.557Z,97432.75
2023-11-12T08:47:14.973Z,97434.31
2023-11-12T08:49:41.338Z,97435.69
2023-11-12T08:52:07.787Z,97436.03
2023-11-12T08:54:35.584Z,97438.94
2023-11-12T08:57:04.381Z,97437.63
2023-11-12T08:59:31.481Z,97447.44
2023-11-12T09:01:57.878Z,97449.00
2023-11-12T09:04:24.709Z,97447.41
2023-11-12T09:06:51.188Z,97446.56
2023-11-12T09:09:18.796Z,97448.38
2023-11-12T09:11:45.254Z,97452.28
2023-11-12T09:14:13.407Z,97457.31
2023-11-12T09:16:43.711Z,97451.72
2023-11-12T09:19:10.476Z,97458.31
2023-11-12T09:21:37.397Z,97465.84
2023-11-12T09:24:04.037Z,97460.25
2023-11-12T09:26:30.487Z,97468.97
2023-11-12T09:28:56.881Z,97469.53
2023-11-12T09:31:23.375Z,97473.81
2023-11-12T09:33:50.162Z,97471.69
2023-11-12T09:36:18.531Z,97473.28
2023-11-12T09:38:45.068Z,97473.28
2023-11-12T09:41:11.503Z,97471.16
2023-11-12T09:43:37.890Z,97469.00
2023-11-12T09:46:07.794Z,97470.59
2023-11-12T09:48:40.233Z,97471.91
2023-11-12T09:51:07.119Z,97475.09
2023-11-12T09:53:35.158Z,97476.94
2023-11-12T09:56:09.596Z,97475.88
2023-11-12T09:58:37.102Z,97473.47
2023-11-12T10:01:03.598Z,97478.75
2023-11-12T10:03:30.366Z,97480.41
2023-11-12T10:05:56.759Z,97475.91
2023-11-12T10:08:23.610Z,97474.84
2023-11-12T10:10:50.051Z,97476.41
2023-11-12T10:13:16.449Z,97469.22
2023-11-12T10:15:42.923Z,97474.84
2023-11-12T10:18:11.051Z,97476.41
2023-11-12T10:20:39.963Z,97475.09
2023-11-12T10:23:07.633Z,97483.28
2023-11-12T10:25:40.635Z,97479.31
2023-11-12T10:28:10.147Z,97476.91
2023-11-12T10:30:38.927Z,97474.78
2023-11-12T10:33:18.585Z,97487.56
2023-11-12T10:35:45.191Z,97481.72
2023-11-12T10:38:13.969Z,97480.91
2023-11-12T10:40:46.055Z,97480.13
2023-11-12T10:43:12.472Z,97482.00
2023-11-12T10:45:42.337Z,97475.34
2023-11-12T10:48:10.481Z,97475.63
2023-11-12T10:50:37.567Z,97478.56
2023-11-12T10:53:05.299Z,97475.38
2023-11-12T10:55:31.678Z,97472.72
2023-11-12T10:57:58.558Z,97482.03
2023-11-12T11:00:25.040Z,97476.97
2023-11-12T11:02:51.507Z,97468.22
2023-11-12T11:05:17.933Z,97478.31
2023-11-12T11:07:44.860Z,97471.63
2023-11-12T11:10:12.171Z,97464.47
2023-11-12T11:12:38.632Z,97466.00
2023-11-12T11:15:23.740Z,97464.38
2023-11-12T11:17:50.207Z,97464.00
2023-11-12T11:20:17.748Z,97455.69
2023-11-12T11:22:45.630Z,97451.69
2023-11-12T11:25:22.863Z,97457.25
2023-11-12T11:27:51.391Z,97452.22
2023-11-12T11:30:17.784Z,97450.13
2023-11-12T11:32:55.689Z,97456.19
2023-11-12T11:35:22.754Z,97445.34
2023-11-12T11:38:18.048Z,97451.47
2023-11-12T11:40:45.974Z,97444.31
2023-11-12T11:43:24.573Z,97436.78
2023-11-12T11:46:06.277Z,97442.81
2023-11-12T11:48:33.040Z,97438.97
2023-11-12T11:51:00.766Z,97434.16
2023-11-12T11:53:28.971Z,97437.09
2023-11-12T11:56:04.796Z,97439.56
2023-11-12T11:58:35.547Z,97432.69
2023-11-12T12:01:01.964Z,97438.78
2023-11-12T12:03:29.894Z,97442.50
2023-11-12T12:05:56.626Z,97434.53
2023-11-12T12:08:23.013Z,97430.28
2023-11-12T12:10:49.508Z,97427.63
2023-11-12T12:13:16.497Z,97428.13
2023-11-12T12:15:46.209Z,97429.72
2023-11-12T12:18:23.971Z,97423.09
2023-11-12T12:20:52.268Z,97429.50
2023-11-12T12:23:18.906Z,97431.38
2023-11-12T12:25:49.341Z,97429.84
2023-11-12T12:28:20.761Z,97430.13
2023-11-12T12:30:53.680Z,97430.19
2023-11-12T12:33:20.098Z,97432.31
2023-11-12T12:35:46.962Z,97434.69
2023-11-12T12:38:13.512Z,97433.09
2023-11-12T12:40:40.027Z,97433.38
2023-11-12T12:43:11.479Z,97440.03
2023-11-12T12:45:37.906Z,97436.88
2023-11-12T12:48:14.717Z,97439.81
2023-11-12T12:50:41.119Z,97439.28
2023-11-12T12:53:18.996Z,97439.56
2023-11-12T12:55:45.577Z,97437.44
2023-11-12T12:58:12.346Z,97439.59
2023-11-12T13:00:39.703Z,97438.03
2023-11-12T13:03:22.119Z,97443.84
2023-11-12T13:05:48.663Z,97434.78
2023-11-12T13:08:15.041Z,97445.19
2023-11-12T13:10:41.600Z,97442.28
2023-11-12T13:13:08.074Z,97452.88
2023-11-12T13:15:34.480Z,97451.00
2023-11-12T13:18:01.238Z,97450.22
2023-11-12T13:20:27.720Z,97452.06
2023-11-12T13:22:54.257Z,97455.81
2023-11-12T13:25:20.636Z,97448.63
2023-11-12T13:27:47.163Z,97463.78
2023-11-12T13:30:13.628Z,97470.94
2023-11-12T13:32:41.362Z,97467.25
2023-11-12T13:35:09.141Z,97469.91
2023-11-12T13:37:36.041Z,97470.94
2023-11-12T13:40:06.812Z,97475.47
2023-11-12T13:42:36.703Z,97483.72
2023-11-12T13:45:07.655Z,97484.81
2023-11-12T13:47:34.052Z,97486.69
2023-11-12T13:50:00.621Z,97485.06
2023-11-12T13:52:28.352Z,97487.22
2023-11-12T13:54:54.867Z,97489.63
2023-11-12T13:57:21.281Z,97495.72
2023-11-12T13:59:47.687Z,97496.53
2023-11-12T14:02:14.077Z,97494.41
2023-11-12T14:04:40.520Z,97500.50
2023-11-12T14:07:07.189Z,97496.78
2023-11-12T14:09:35.368Z,97501.31
2023-11-12T14:12:08.747Z,97498.94
2023-11-12T14:14:35.361Z,97498.38
2023-11-12T14:17:07.938Z,97493.34
2023-11-12T14:19:36.839Z,97497.09
2023-11-12T14:22:05.155Z,97500.81
2023-11-12T14:24:31.961Z,97496.84
2023-11-12T14:26:58.564Z,97498.41
2023-11-12T14:29:26.716Z,97507.47
2023-11-12T14:31:53.240Z,97505.09
2023-11-12T14:34:19.853Z,97506.69
2023-11-12T14:36:46.569Z,97508.25
2023-11-12T14:39:19.063Z,97501.06
2023-11-12T14:41:46.252Z,97509.59
2023-11-12T14:44:12.603Z,97506.13
2023-11-12T14:46:39.746Z,97506.94
2023-11-12T14:49:06.845Z,97519.94
2023-11-12T14:51:34.469Z,97520.72
2023-11-12T14:54:05.612Z,97516.78
2023-11-12T14:56:37.532Z,97518.09
2023-11-12T14:59:05.091Z,97521.84
2023-11-12T15:01:31.810Z,97517.84
2023-11-12T15:03:58.303Z,97521.56
2023-11-12T15:06:24.771Z,97514.16
2023-11-12T15:08:51.166Z,97527.66
2023-11-12T15:11:17.527Z,97527.13
2023-11-12T15:13:44.451Z,97520.47
2023-11-12T15:16:11.246Z,97523.38
2023-11-12T15:18:37.705Z,97522.03
2023-11-12T15:21:04.783Z,97522.53
2023-11-12T15:23:34.221Z,97522.56
2023-11-12T15:26:00.652Z,97526.03
2023-11-12T15:28:29.886Z,97526.84
2023-11-12T15:30:56.947Z,97531.38
2023-11-12T15:33:24.113Z,97536.69
2023-11-12T15:35:50.681Z,97538.03
2023-11-12T15:38:17.060Z,97531.13
2023-11-12T15:40:45.445Z,97531.41
2023-11-12T15:43:11.857Z,97528.75
2023-11-12T15:45:38.231Z,97539.91
2023-11-12T15:48:04.814Z,97541.25
2023-11-12T15:50:31.421Z,97538.34
2023-11-12T15:52:58.580Z,97537.53
2023-11-12T15:55:25.160Z,97539.94
2023-11-12T15:57:51.706Z,97544.44
2023-11-12T16:00:21.095Z,97542.06
2023-11-12T16:02:47.973Z,97540.75
2023-11-12T16:05:14.648Z,97539.69
2023-11-12T16:07:41.335Z,97541.78
2023-11-12T16:10:08.624Z,97538.63
2023-11-12T16:12:35.108Z,97543.94
2023-11-12T16:15:06.512Z,97542.06
2023-11-12T16:17:33.129Z,97541.25
2023-11-12T16:20:05.741Z,97534.56
2023-11-12T16:22:34.695Z,97539.56
2023-11-12T16:25:05.231Z,97542.19
2023-11-12T16:27:32.125Z,97548.00
2023-11-12T16:29:58.745Z,97542.13
2023-11-12T16:32:25.353Z,97543.72
2023-11-12T16:34:55.097Z,97550.91
2023-11-12T16:37:21.461Z,97550.66
2023-11-12T16:39:48.544Z,97553.53
2023-11-12T16:42:15.341Z,97558.59
2023-11-12T16:44:42.333Z,97556.16
2023-11-12T16:47:08.989Z,97559.03
2023-11-12T16:49:36.751Z,97568.50
2023-11-12T16:52:03.573Z,97566.88
2023-11-12T16:54:30.084Z,97576.38
2023-11-12T16:56:58.846Z,97572.63
2023-11-12T16:59:25.934Z,97570.75
2023-11-12T17:01:52.379Z,97570.91
2023-11-12T17:04:18.858Z,97575.97
2023-11-12T17:06:46.727Z,97582.56
2023-11-12T17:09:14.311Z,97576.06
2023-11-12T17:11:40.681Z,97578.63
2023-11-12T17:14:08.540Z,97579.38
2023-11-12T17:16:39.065Z,97587.06
2023-11-12T17:19:05.615Z,97590.69
2023-11-12T17:21:33.853Z,97593.31
2023-11-12T17:24:05.068Z,97592.16
2023-11-12T17:26:31.507Z,97595.56
2023-11-12T17:28:59.153Z,97597.09
2023-11-12T17:31:25.726Z,97597.53
2023-11-12T17:33:56.101Z,97607.50
2023-11-12T17:36:23.233Z,97603.78
2023-11-12T17:38:50.405Z,97602.72
2023-11-12T17:41:17.795Z,97611.66
2023-11-12T17:43:46.996Z,97607.00
2023-11-12T17:46:14.623Z,97603.97
2023-11-12T17:48:44.075Z,97605.78
2023-11-12T17:51:10.979Z,97608.66
2023-11-12T17:53:37.642Z,97605.13
2023-11-12T17:56:04.198Z,97609.91
2023-11-12T17:58:30.796Z,97609.63
2023-11-12T18:00:59.367Z,97608.53
2023-11-12T18:03:28.497Z,97608.78
2023-11-12T18:05:54.973Z,97605.00
2023-11-12T18:08:21.692Z,97603.63
2023-11-12T18:10:48.273Z,97598.28
2023-11-12T18:13:16.486Z,97607.69
2023-11-12T18:15:44.694Z,97614.59
2023-11-12T18:18:12.227Z,97614.03
2023-11-12T18:20:39.053Z,97609.56
2023-11-12T18:23:06.348Z,97617.78
2023-11-12T18:25:34.450Z,97624.41
2023-11-12T18:28:01.280Z,97619.16
2023-11-12T18:30:28.500Z,97619.44
2023-11-12T18:32:54.892Z,97619.66
2023-11-12T18:35:22.201Z,97622.63
2023-11-12T18:37:51.751Z,97615.03
2023-11-12T18:40:20.164Z,97613.81
2023-11-12T18:42:46.607Z,97616.41
2023-11-12T18:45:17.726Z,97626.66
2023-11-12T18:47:45.105Z,97630.63
2023-11-12T18:50:11.757Z,97621.81
2023-11-12T18:52:38.892Z,97627.66
2023-11-12T18:55:08.997Z,97637.69
2023-11-12T18:57:35.500Z,97632.81
2023-11-12T19:00:07.627Z,97642.00
2023-11-12T19:02:35.281Z,97638.16
2023-11-12T19:05:04.131Z,97633.59
2023-11-12T19:07:31.037Z,97637.06
2023-11-12T19:09:57.432Z,97649.31
2023-11-12T19:12:23.813Z,97652.28
2023-11-12T19:14:50.170Z,97657.34
2023-11-12T19:17:16.705Z,97654.88
2023-11-12T19:19:43.116Z,97657.84
2023-11-12T19:22:09.629Z,97661.81
2023-11-12T19:24:37.428Z,97661.00
2023-11-12T19:27:04.608Z,97654.00
2023-11-12T19:29:31.663Z,97665.28
2023-11-12T19:31:58.207Z,97661.88
2023-11-12T19:34:27.238Z,97670.97
2023-11-12T19:36:53.823Z,97680.88
2023-11-12T19:39:20.841Z,97680.19
2023-11-12T19:41:47.641Z,97681.59
2023-11-12T19:44:14.136Z,97689.66
2023-11-12T19:46:43.603Z,97695.50
2023-11-12T19:49:10.034Z,97700.91
2023-11-12T19:51:36.758Z,97702.88
2023-11-12T19:54:04.597Z,97710.81
2023-11-12T19:56:31.164Z,97714.66
2023-11-12T19:59:01.200Z,97715.13
2023-11-12T20:01:30.450Z,97724.22
2023-11-12T20:03:57.224Z,97718.06
2023-11-12T20:06:23.911Z,97723.41
2023-11-12T20:08:50.306Z,97726.53
2023-11-12T20:11:17.984Z,97719.31
2023-11-12T20:13:45.541Z,97720.09
2023-11-12T20:16:15.644Z,97723.59
2023-11-12T20:18:45.161Z,97721.44
2023-11-12T20:21:11.601Z,97712.63
2023-11-12T20:23:40.897Z,97708.63
2023-11-12T20:26:07.386Z,97694.28
2023-11-12T20:28:34.112Z,97692.13
2023-11-12T20:31:00.795Z,97690.72
2023-11-12T20:33:27.597Z,97688.16
2023-11-12T20:35:54.346Z,97679.00
2023-11-12T20:38:20.852Z,97671.63
2023-11-12T20:40:47.242Z,97659.91
2023-11-12T20:43:14.276Z,97674.50
2023-11-12T20:45:41.463Z,97669.88
2023-11-12T20:48:07.999Z,97659.91
2023-11-12T20:50:38.759Z,97662.41
2023-11-12T20:53:07.293Z,97667.09
2023-11-12T20:55:33.669Z,97664.88
2023-11-12T20:58:00.076Z,97668.84
2023-11-12T21:00:28.602Z,97676.19
2023-11-12T21:02:55.040Z,97684.22
2023-11-12T21:05:21.866Z,97682.53
2023-11-12T21:07:48.578Z,97692.28
2023-11-12T21:10:15.168Z,97700.00
2023-11-12T21:12:41.576Z,97704.75
2023-11-12T21:15:10.622Z,97708.44
2023-11-12T21:17:37.025Z,97708.13
2023-11-12T21:20:04.174Z,97708.84
2023-11-12T21:22:30.647Z,97720.84
2023-11-12T21:24:57.142Z,97729.34
2023-11-12T21:27:23.534Z,97728.56
2023-11-12T21:29:49.897Z,97743.94
2023-11-12T21:32:16.321Z,97735.50
2023-11-12T21:34:42.692Z,97744.63
2023-11-12T21:37:09.166Z,97742.53
2023-11-12T21:39:38.561Z,97748.47
2023-11-12T21:42:06.346Z,97754.31
2023-11-12T21:44:32.834Z,97746.59
2023-11-12T21:46:59.926Z,97740.44
2023-11-12T21:49:28.005Z,97739.66
2023-11-12T21:51:56.470Z,97728.97
2023-11-12T21:54:24.099Z,97726.28
2023-11-12T21:56:51.573Z,97724.97
2023-11-12T21:59:21.263Z,97727.97
2023-11-12T22:01:56.955Z,97722.31
2023-11-12T22:04:25.893Z,97724.28
2023-11-12T22:06:52.378Z,97718.41
2023-11-12T22:09:18.810Z,97711.47
2023-11-12T22:11:45.659Z,97700.56
2023-11-12T22:14:12.330Z,97699.28
2023-11-12T22:16:39.028Z,97702.25
2023-11-12T22:19:07.811Z,97702.53
2023-11-12T22:21:34.939Z,97703.16
2023-11-12T22:24:01.634Z,97703.94
2023-11-12T22:26:29.354Z,97710.16
2023-11-12T22:28:56.139Z,97710.44
2023-11-12T22:31:22.877Z,97704.91
2023-11-12T22:33:49.392Z,97710.25
2023-11-12T22:36:15.791Z,97717.97
2023-11-12T22:38:42.191Z,97729.44
2023-11-12T22:41:08.685Z,97720.41
2023-11-12T22:43:35.099Z,97713.50
2023-11-12T22:46:01.626Z,97710.81
2023-11-12T22:48:28.056Z,97723.69
2023-11-12T22:50:54.437Z,97736.53
2023-11-12T22:53:23.485Z,97731.50
2023-11-12T22:55:51.024Z,97732.00
2023-11-12T22:58:17.612Z,97755.88
2023-11-12T23:00:48.152Z,97768.31
2023-11-12T23:03:16.180Z,97778.13
2023-11-12T23:05:42.907Z,97779.81
2023-11-12T23:08:09.494Z,97775.53
2023-11-12T23:10:36.096Z,97774.53
2023-11-12T23:13:02.804Z,97761.75
2023-11-12T23:15:29.194Z,97750.84
2023-11-12T23:17:55.591Z,97753.81
2023-11-12T23:20:22.646Z,97756.25
2023-11-12T23:22:49.115Z,97756.56
2023-11-12T23:25:16.781Z,97757.34
2023-11-12T23:27:43.227Z,97759.78
2023-11-12T23:30:09.874Z,97763.25
2023-11-12T23:32:37.091Z,97767.81
2023-11-12T23:35:04.074Z,97768.59
2023-11-12T23:37:30.443Z,97766.72
2023-11-12T23:39:56.955Z,97758.19
2023-11-12T23:42:24.087Z,97758.19
2023-11-12T23:44:50.849Z,97758.50
2023-11-12T23:47:17.241Z,97744.63
2023-11-12T23:49:43.643Z,97738.00
2023-11-12T23:52:11.532Z,97726.78
2023-11-12T23:54:38.938Z,97726.63
2023-11-12T23:57:05.314Z,97735.88
2023-11-12T23:59:32.728Z,97721.59
